Time;durP1;ratioP1;P1;durP2;ratioP2;P2;SDS_P1;SDS_P2;PMS_P1;PMS_P2;Temp;Humidity;BMP_temperature;BMP_pressure;BME280_temperature;BME280_humidity;BME280_pressure;Samples;Min_cycle;Max_cycle;Signal;HPM_P1;HPM_P2
2022/06/24 00:00:44;;;;;;;0.00;0.00;;;23.80;84.90;;;;;;4935534;29;20266;-73
2022/06/24 00:03:17;;;;;;;0.00;0.00;;;23.80;85.40;;;;;;4934281;29;20202;-74
2022/06/24 00:05:46;;;;;;;0.00;0.00;;;23.80;85.60;;;;;;4927563;29;20299;-72
2022/06/24 00:08:15;;;;;;;0.00;0.00;;;23.80;85.80;;;;;;4934776;29;20237;-74
2022/06/24 00:10:44;;;;;;;0.00;0.00;;;23.70;86.50;;;;;;4917799;29;20276;-74
2022/06/24 00:13:13;;;;;;;0.00;0.00;;;23.70;86.60;;;;;;4931238;29;20227;-75
2022/06/24 00:15:41;;;;;;;0.00;0.00;;;23.60;86.80;;;;;;4943593;29;20313;-74
2022/06/24 00:18:13;;;;;;;0.00;0.00;;;23.60;87.20;;;;;;4936550;29;20203;-73
2022/06/24 00:20:44;;;;;;;0.00;0.00;;;23.50;87.30;;;;;;4935773;29;20269;-73
2022/06/24 00:23:13;;;;;;;0.00;0.00;;;23.50;87.70;;;;;;4937421;29;20221;-74
2022/06/24 00:25:41;;;;;;;0.00;0.00;;;23.50;88.10;;;;;;4934403;29;20211;-73
2022/06/24 00:28:10;;;;;;;0.00;0.00;;;23.40;88.30;;;;;;4932717;29;20202;-73
2022/06/24 00:30:41;;;;;;;0.00;0.00;;;23.40;88.60;;;;;;4918672;29;20216;-74
2022/06/24 00:33:12;;;;;;;0.00;0.00;;;23.40;88.90;;;;;;4945265;29;20221;-74
2022/06/24 00:35:41;;;;;;;0.00;0.00;;;23.40;88.90;;;;;;4941058;29;20213;-74
2022/06/24 00:38:26;;;;;;;0.00;0.00;;;23.30;89.20;;;;;;4933869;29;20670;-74
2022/06/24 00:40:57;;;;;;;0.00;0.00;;;23.30;89.50;;;;;;4934982;29;20213;-74
2022/06/24 00:43:30;;;;;;;0.00;0.00;;;23.20;89.80;;;;;;4934065;29;20198;-73
2022/06/24 00:46:06;;;;;;;0.00;0.00;;;23.20;90.00;;;;;;4928418;29;20238;-72
2022/06/24 00:48:38;;;;;;;0.00;0.00;;;23.20;90.00;;;;;;4942062;29;20284;-74
2022/06/24 00:51:07;;;;;;;0.00;0.00;;;23.20;90.10;;;;;;4936349;29;20220;-75
2022/06/24 00:53:44;;;;;;;0.00;0.00;;;23.10;90.20;;;;;;4942163;29;20246;-74
2022/06/24 00:56:14;;;;;;;0.00;0.00;;;23.10;90.40;;;;;;4938061;29;20213;-75
2022/06/24 00:58:51;;;;;;;0.00;0.00;;;23.10;90.50;;;;;;4939087;29;20222;-74
2022/06/24 01:01:26;;;;;;;0.00;0.00;;;23.10;90.50;;;;;;4931296;29;20217;-74
2022/06/24 01:03:55;;;;;;;0.00;0.00;;;23.00;90.70;;;;;;4936790;29;20198;-74
2022/06/24 01:06:23;;;;;;;0.00;0.00;;;22.90;90.90;;;;;;4936141;29;20520;-74
2022/06/24 01:08:51;;;;;;;0.00;0.00;;;22.90;91.00;;;;;;4924131;29;20282;-75
2022/06/24 01:11:24;;;;;;;0.00;0.00;;;22.80;91.10;;;;;;4935239;29;20206;-73
2022/06/24 01:13:53;;;;;;;0.00;0.00;;;22.80;91.30;;;;;;4936663;29;20233;-75
2022/06/24 01:16:23;;;;;;;0.00;0.00;;;22.70;91.30;;;;;;4952443;29;20240;-75
2022/06/24 01:18:52;;;;;;;0.00;0.00;;;22.60;91.50;;;;;;4920705;29;20231;-75
2022/06/24 01:21:36;;;;;;;0.00;0.00;;;22.60;91.50;;;;;;4932963;29;20527;-74
2022/06/24 01:24:06;;;;;;;0.00;0.00;;;22.60;91.60;;;;;;4932191;29;20217;-74
2022/06/24 01:26:34;;;;;;;0.00;0.00;;;22.50;91.60;;;;;;4937626;29;20210;-74
2022/06/24 01:29:09;;;;;;;0.00;0.00;;;22.50;91.70;;;;;;4937559;29;20226;-74
2022/06/24 01:31:38;;;;;;;0.00;0.00;;;22.50;91.80;;;;;;4937153;29;20591;-74
2022/06/24 01:34:07;;;;;;;0.00;0.00;;;22.40;91.90;;;;;;4943932;29;20226;-74
2022/06/24 01:36:36;;;;;;;0.00;0.00;;;22.40;92.00;;;;;;4937486;29;20194;-74
2022/06/24 01:39:05;;;;;;;0.00;0.00;;;22.40;92.10;;;;;;4936800;29;20218;-72
2022/06/24 01:41:33;;;;;;;0.00;0.00;;;22.40;92.20;;;;;;4937651;29;20222;-73
2022/06/24 01:44:02;;;;;;;0.00;0.00;;;22.40;92.30;;;;;;4936986;29;20202;-74
2022/06/24 01:46:30;;;;;;;0.00;0.00;;;22.30;92.40;;;;;;4938382;29;20206;-73
2022/06/24 01:48:58;;;;;;;0.00;0.00;;;22.30;92.50;;;;;;4942902;29;20230;-73
2022/06/24 01:51:27;;;;;;;0.00;0.00;;;22.30;92.60;;;;;;4934406;29;20266;-73
2022/06/24 01:53:56;;;;;;;0.00;0.00;;;22.30;92.70;;;;;;4929919;29;20601;-75
2022/06/24 01:56:24;;;;;;;0.00;0.00;;;22.30;92.80;;;;;;4931017;29;20202;-75
2022/06/24 01:58:52;;;;;;;0.00;0.00;;;22.30;92.80;;;;;;4919388;29;20235;-76
2022/06/24 02:01:20;;;;;;;0.00;0.00;;;22.30;92.80;;;;;;4936028;29;20265;-73
2022/06/24 02:03:48;;;;;;;0.00;0.00;;;22.30;93.20;;;;;;4945924;29;20206;-73
2022/06/24 02:06:17;;;;;;;0.00;0.00;;;22.30;92.70;;;;;;4947595;29;20734;-74
2022/06/24 02:08:45;;;;;;;0.00;0.00;;;22.30;92.80;;;;;;4929102;29;20222;-72
2022/06/24 02:14:02;;;;;;;0.00;0.00;;;22.30;92.80;;;;;;4928430;29;20634;-73
2022/06/24 02:16:30;;;;;;;0.00;0.00;;;22.30;92.80;;;;;;4940143;29;20618;-70
2022/06/24 02:18:58;;;;;;;0.00;0.00;;;22.20;92.80;;;;;;4936527;29;20309;-70
2022/06/24 02:21:27;;;;;;;0.00;0.00;;;22.20;92.90;;;;;;4936612;29;20208;-70
2022/06/24 02:23:55;;;;;;;0.00;0.00;;;22.20;93.00;;;;;;4936901;29;20195;-70
2022/06/24 02:26:25;;;;;;;0.00;0.00;;;22.20;93.10;;;;;;4936560;29;20674;-69
2022/06/24 02:28:53;;;;;;;0.00;0.00;;;22.10;93.20;;;;;;4936210;29;20222;-70
2022/06/24 02:31:21;;;;;;;0.00;0.00;;;22.10;93.20;;;;;;4942669;29;20213;-69
2022/06/24 02:33:49;;;;;;;0.00;0.00;;;22.10;93.20;;;;;;4938149;29;20236;-71
2022/06/24 02:36:18;;;;;;;0.00;0.00;;;22.10;93.20;;;;;;4936114;29;20203;-71
2022/06/24 02:38:46;;;;;;;0.00;0.00;;;22.00;93.40;;;;;;4936191;29;20270;-72
2022/06/24 02:41:14;;;;;;;0.00;0.00;;;22.00;93.40;;;;;;4936699;29;20289;-72
2022/06/24 02:43:43;;;;;;;0.00;0.00;;;22.00;93.40;;;;;;4936582;29;20598;-72
2022/06/24 02:46:12;;;;;;;0.00;0.00;;;21.90;93.50;;;;;;4935847;29;20205;-75
2022/06/24 02:48:41;;;;;;;0.00;0.00;;;21.80;93.70;;;;;;4943009;28;20273;-72
2022/06/24 02:51:10;;;;;;;0.00;0.00;;;21.90;93.70;;;;;;4950484;29;20626;-72
2022/06/24 02:53:38;;;;;;;0.00;0.00;;;22.00;93.60;;;;;;4936492;29;20597;-71
2022/06/24 02:56:07;;;;;;;0.00;0.00;;;22.00;93.60;;;;;;4935702;29;20234;-72
2022/06/24 02:58:36;;;;;;;0.00;0.00;;;21.80;93.90;;;;;;4935517;29;20227;-72
2022/06/24 03:01:05;;;;;;;0.00;0.00;;;21.70;94.10;;;;;;4935642;29;20654;-73
2022/06/24 03:03:33;;;;;;;0.00;0.00;;;21.70;94.30;;;;;;4935264;29;20725;-72
2022/06/24 03:06:02;;;;;;;0.00;0.00;;;21.50;94.50;;;;;;4943294;29;20205;-72
2022/06/24 03:08:30;;;;;;;0.00;0.00;;;21.40;94.70;;;;;;4957557;28;20201;-73
2022/06/24 03:10:58;;;;;;;0.00;0.00;;;21.40;94.80;;;;;;4939570;29;20206;-72
2022/06/24 03:13:28;;;;;;;0.00;0.00;;;21.30;94.90;;;;;;4933231;29;20267;-72
2022/06/24 03:15:56;;;;;;;0.00;0.00;;;21.30;95.10;;;;;;4946079;29;20198;-72
2022/06/24 03:18:25;;;;;;;0.00;0.00;;;21.40;95.10;;;;;;4946049;29;20210;-72
2022/06/24 03:20:53;;;;;;;0.00;0.00;;;21.00;95.60;;;;;;4946359;29;20202;-72
2022/06/24 03:23:21;;;;;;;0.00;0.00;;;20.90;95.80;;;;;;4944166;29;20202;-72
2022/06/24 03:25:49;;;;;;;0.00;0.00;;;21.00;95.80;;;;;;4939656;29;20214;-74
2022/06/24 03:28:17;;;;;;;0.00;0.00;;;20.90;95.90;;;;;;4939273;29;20198;-74
2022/06/24 03:30:44;;;;;;;0.00;0.00;;;20.90;95.90;;;;;;4946378;29;20210;-74
2022/06/24 03:33:12;;;;;;;0.00;0.00;;;20.90;95.90;;;;;;4954652;29;20205;-74
2022/06/24 03:35:41;;;;;;;0.00;0.00;;;21.00;95.80;;;;;;4943362;29;20590;-74
2022/06/24 03:38:09;;;;;;;0.00;0.00;;;21.10;95.70;;;;;;4934543;29;20424;-73
2022/06/24 03:40:37;;;;;;;0.00;0.00;;;21.10;95.80;;;;;;4935294;29;20222;-73
2022/06/24 03:43:05;;;;;;;0.00;0.00;;;21.10;95.70;;;;;;4935385;29;20209;-73
2022/06/24 03:45:33;;;;;;;0.00;0.00;;;21.00;95.80;;;;;;4935150;29;20658;-73
2022/06/24 03:48:00;;;;;;;0.00;0.00;;;21.00;95.90;;;;;;4939929;29;20212;-73
2022/06/24 03:50:28;;;;;;;0.00;0.00;;;21.10;96.00;;;;;;4917653;29;20581;-73
2022/06/24 03:52:58;;;;;;;0.00;0.00;;;21.10;96.00;;;;;;4935018;29;20209;-73
2022/06/24 03:55:26;;;;;;;0.00;0.00;;;21.00;96.10;;;;;;4935049;29;20226;-72
2022/06/24 03:57:54;;;;;;;0.00;0.00;;;20.90;96.20;;;;;;4935166;29;20701;-73
2022/06/24 04:00:22;;;;;;;0.00;0.00;;;21.00;96.10;;;;;;4935609;29;20816;-73
2022/06/24 04:02:50;;;;;;;0.00;0.00;;;21.00;96.20;;;;;;4935315;29;20198;-73
2022/06/24 04:05:18;;;;;;;0.00;0.00;;;20.90;96.20;;;;;;4940880;29;20559;-72
2022/06/24 04:07:45;;;;;;;0.00;0.00;;;20.90;96.30;;;;;;4933943;29;20210;-73
2022/06/24 04:10:14;;;;;;;0.00;0.00;;;20.80;96.60;;;;;;4933580;29;20226;-74
2022/06/24 04:12:42;;;;;;;0.00;0.00;;;20.60;96.60;;;;;;4933186;29;20210;-73
2022/06/24 04:15:17;;;;;;;0.00;0.00;;;20.60;96.80;;;;;;4944952;29;20276;-73
2022/06/24 04:17:47;;;;;;;0.00;0.00;;;20.50;96.90;;;;;;4952129;29;20204;-74
2022/06/24 04:20:17;;;;;;;0.00;0.00;;;20.40;96.90;;;;;;4935402;29;20221;-73
2022/06/24 04:22:46;;;;;;;0.00;0.00;;;20.50;97.00;;;;;;4954002;29;20229;-72
2022/06/24 04:25:15;;;;;;;0.00;0.00;;;20.50;97.00;;;;;;4944757;29;20203;-73
2022/06/24 04:27:43;;;;;;;0.00;0.00;;;20.50;97.20;;;;;;4917404;29;20225;-73
2022/06/24 04:30:12;;;;;;;0.00;0.00;;;20.60;97.00;;;;;;4933515;29;20222;-73
2022/06/24 04:32:41;;;;;;;0.00;0.00;;;20.60;97.20;;;;;;4931896;29;20567;-73
2022/06/24 04:35:09;;;;;;;0.00;0.00;;;20.50;97.10;;;;;;4933315;29;20242;-73
2022/06/24 04:37:37;;;;;;;0.00;0.00;;;20.50;97.30;;;;;;4935063;29;20258;-72
2022/06/24 04:40:07;;;;;;;0.00;0.00;;;20.60;97.10;;;;;;4933926;29;20229;-75
2022/06/24 04:42:37;;;;;;;0.00;0.00;;;20.60;97.10;;;;;;4914369;29;20584;-75
2022/06/24 04:45:06;;;;;;;0.00;0.00;;;20.70;97.10;;;;;;4915338;29;20693;-75
2022/06/24 04:47:34;;;;;;;0.00;0.00;;;20.70;97.00;;;;;;4914346;29;20203;-76
2022/06/24 04:50:02;;;;;;;0.00;0.00;;;20.70;97.10;;;;;;4924842;29;20594;-76
2022/06/24 04:52:30;;;;;;;0.00;0.00;;;20.80;97.20;;;;;;4933857;29;20469;-75
2022/06/24 04:54:59;;;;;;;0.00;0.00;;;20.80;97.10;;;;;;4934466;29;20242;-76
2022/06/24 04:57:27;;;;;;;0.00;0.00;;;20.90;97.00;;;;;;4934202;29;20251;-76
2022/06/24 04:59:56;;;;;;;0.00;0.00;;;21.00;96.80;;;;;;4933995;29;20214;-75
2022/06/24 05:02:24;;;;;;;0.00;0.00;;;21.00;96.60;;;;;;4932833;29;20301;-75
2022/06/24 05:04:52;;;;;;;0.00;0.00;;;21.20;96.60;;;;;;4934700;29;20556;-73
2022/06/24 05:07:20;;;;;;;0.00;0.00;;;21.30;96.40;;;;;;4934960;29;20340;-73
2022/06/24 05:09:47;;;;;;;0.00;0.00;;;21.40;95.90;;;;;;4935208;29;20225;-73
2022/06/24 05:12:15;;;;;;;0.00;0.00;;;21.50;95.90;;;;;;4917714;29;20206;-73
2022/06/24 05:14:43;;;;;;;0.00;0.00;;;21.60;95.60;;;;;;4918287;29;20555;-73
2022/06/24 05:17:15;;;;;;;0.00;0.00;;;21.70;95.60;;;;;;4933896;29;20293;-73
2022/06/24 05:19:43;;;;;;;0.00;0.00;;;21.70;95.40;;;;;;4936063;29;20226;-73
2022/06/24 05:22:11;;;;;;;0.00;0.00;;;21.70;95.30;;;;;;4933539;29;20194;-73
2022/06/24 05:24:39;;;;;;;0.00;0.00;;;21.90;95.40;;;;;;4933059;29;20206;-72
2022/06/24 05:27:07;;;;;;;0.00;0.00;;;22.00;95.20;;;;;;4933692;29;20218;-73
2022/06/24 05:29:35;;;;;;;0.00;0.00;;;22.20;94.30;;;;;;4933711;29;20222;-73
2022/06/24 05:32:04;;;;;;;0.00;0.00;;;22.30;94.10;;;;;;4916886;29;20202;-73
2022/06/24 05:34:33;;;;;;;0.00;0.00;;;22.40;94.20;;;;;;4935864;29;20206;-72
2022/06/24 05:37:02;;;;;;;0.00;0.00;;;22.50;93.80;;;;;;4937681;29;20198;-72
2022/06/24 05:39:30;;;;;;;0.00;0.00;;;22.50;93.60;;;;;;4933719;29;20219;-71
2022/06/24 05:41:58;;;;;;;0.00;0.00;;;22.60;93.50;;;;;;4935245;29;20203;-71
2022/06/24 05:44:26;;;;;;;0.00;0.00;;;22.60;93.70;;;;;;4937888;29;20224;-71
2022/06/24 05:46:54;;;;;;;0.00;0.00;;;22.70;93.40;;;;;;4938830;29;20203;-71
2022/06/24 05:49:22;;;;;;;0.00;0.00;;;22.80;93.50;;;;;;4937953;29;20226;-71
2022/06/24 05:51:51;;;;;;;0.00;0.00;;;22.90;93.50;;;;;;4941564;29;20266;-71
2022/06/24 05:57:05;;;;;;;0.05;0.05;;;23.00;93.20;;;;;;4937695;29;20217;-71
2022/06/24 05:59:37;;;;;;;0.00;0.00;;;23.20;93.00;;;;;;4938163;29;20218;-71
2022/06/24 06:02:05;;;;;;;0.00;0.00;;;23.20;92.60;;;;;;4937664;29;20242;-71
2022/06/24 06:04:33;;;;;;;0.00;0.00;;;23.30;92.70;;;;;;4938255;29;20666;-71
2022/06/24 06:07:02;;;;;;;0.00;0.00;;;23.30;92.60;;;;;;4941309;29;20205;-71
2022/06/24 06:09:30;;;;;;;0.00;0.00;;;23.40;92.50;;;;;;4940481;29;20233;-71
2022/06/24 06:11:58;;;;;;;0.00;0.00;;;23.50;92.40;;;;;;4937646;29;20203;-71
2022/06/24 06:14:26;;;;;;;0.00;0.00;;;23.50;92.10;;;;;;4937488;29;20203;-71
2022/06/24 06:17:01;;;;;;;0.00;0.00;;;23.60;92.20;;;;;;4939038;29;20796;-71
2022/06/24 06:19:29;;;;;;;0.00;0.00;;;23.70;92.00;;;;;;4938349;29;20641;-71
2022/06/24 06:21:56;;;;;;;0.00;0.00;;;23.80;91.80;;;;;;4938062;29;20214;-71
2022/06/24 06:24:25;;;;;;;0.00;0.00;;;24.00;91.50;;;;;;4937663;29;20203;-72
2022/06/24 06:26:53;;;;;;;0.00;0.00;;;24.10;90.80;;;;;;4938283;29;20194;-71
2022/06/24 06:29:21;;;;;;;0.00;0.00;;;24.10;90.50;;;;;;4937089;29;20226;-71
2022/06/24 06:31:50;;;;;;;0.00;0.00;;;24.10;90.40;;;;;;4937633;29;20202;-71
2022/06/24 06:34:19;;;;;;;0.00;0.00;;;24.10;90.50;;;;;;4936666;29;20742;-71
2022/06/24 06:36:47;;;;;;;0.00;0.00;;;24.20;90.80;;;;;;4936709;29;20222;-71
2022/06/24 06:39:14;;;;;;;0.00;0.00;;;24.20;90.80;;;;;;4934960;29;20313;-71
2022/06/24 06:41:46;;;;;;;0.00;0.00;;;24.30;90.80;;;;;;4936854;29;20268;-71
2022/06/24 06:44:16;;;;;;;0.00;0.00;;;24.40;90.70;;;;;;4936389;29;20742;-71
2022/06/24 06:46:44;;;;;;;0.00;0.00;;;24.50;90.50;;;;;;4934653;29;20206;-71
2022/06/24 06:49:12;;;;;;;0.00;0.00;;;24.50;90.40;;;;;;4916751;29;20282;-72
2022/06/24 06:51:40;;;;;;;0.00;0.00;;;24.40;90.40;;;;;;4917590;29;20211;-71
2022/06/24 06:54:08;;;;;;;0.00;0.00;;;24.20;90.50;;;;;;4916878;29;20738;-71
2022/06/24 06:56:36;;;;;;;0.00;0.00;;;24.10;90.70;;;;;;4917208;29;20230;-71
2022/06/24 06:59:05;;;;;;;0.00;0.00;;;24.00;90.60;;;;;;4917041;29;20219;-72
2022/06/24 07:01:33;;;;;;;0.00;0.00;;;24.00;90.80;;;;;;4918042;29;20282;-71
2022/06/24 07:04:01;;;;;;;0.00;0.00;;;24.00;90.80;;;;;;4917678;29;20280;-71
2022/06/24 07:06:28;;;;;;;0.00;0.00;;;23.90;90.80;;;;;;4917058;29;20547;-72
2022/06/24 07:08:56;;;;;;;0.00;0.00;;;23.90;91.00;;;;;;4917148;29;20575;-72
2022/06/24 07:11:24;;;;;;;0.00;0.00;;;24.00;91.00;;;;;;4917144;29;20742;-71
2022/06/24 07:13:54;;;;;;;0.00;0.00;;;23.90;90.90;;;;;;4917587;29;20742;-71
2022/06/24 07:16:24;;;;;;;0.00;0.00;;;23.90;91.10;;;;;;4921074;29;20239;-71
2022/06/24 07:18:51;;;;;;;0.00;0.00;;;23.90;91.00;;;;;;4916201;29;20270;-71
2022/06/24 07:21:19;;;;;;;0.00;0.00;;;23.90;91.10;;;;;;4927824;29;20682;-71
2022/06/24 07:23:47;;;;;;;0.00;0.00;;;23.90;91.30;;;;;;4922954;29;20207;-72
2022/06/24 07:26:15;;;;;;;0.00;0.00;;;23.80;91.30;;;;;;4900207;29;20200;-72
2022/06/24 07:28:43;;;;;;;0.00;0.00;;;23.80;91.50;;;;;;4933007;29;20231;-72
2022/06/24 07:31:18;;;;;;;0.00;0.00;;;23.80;91.60;;;;;;4925073;29;20214;-72
2022/06/24 07:33:48;;;;;;;0.00;0.00;;;23.80;91.80;;;;;;4917107;29;20213;-72
2022/06/24 07:36:15;;;;;;;0.00;0.00;;;23.80;91.90;;;;;;4918908;29;20223;-72
2022/06/24 07:38:43;;;;;;;0.00;0.00;;;23.80;92.00;;;;;;4933375;29;20776;-72
2022/06/24 07:41:13;;;;;;;0.00;0.00;;;23.80;92.30;;;;;;4936109;29;20201;-72
2022/06/24 07:43:40;;;;;;;0.00;0.00;;;23.90;92.40;;;;;;4935957;29;20198;-71
2022/06/24 07:46:10;;;;;;;0.00;0.00;;;24.00;92.30;;;;;;4935562;29;20596;-72
2022/06/24 07:48:39;;;;;;;0.00;0.00;;;24.00;92.50;;;;;;4935559;29;20214;-72
2022/06/24 07:51:13;;;;;;;0.00;0.00;;;23.90;92.40;;;;;;4935463;29;20253;-72
2022/06/24 07:53:42;;;;;;;0.00;0.00;;;23.90;93.10;;;;;;4935523;29;20281;-72
2022/06/24 07:59:03;;;;;;;0.00;0.00;;;23.70;93.70;;;;;;4934713;29;20715;-72
2022/06/24 08:01:31;;;;;;;0.00;0.00;;;23.50;93.80;;;;;;4935902;29;20202;-74
2022/06/24 08:03:58;;;;;;;0.00;0.00;;;23.40;94.30;;;;;;4935407;29;20198;-72
2022/06/24 08:06:28;;;;;;;0.00;0.00;;;23.10;95.90;;;;;;4935183;29;20662;-73
2022/06/24 08:08:56;;;;;;;0.00;0.00;;;22.60;98.40;;;;;;4936840;29;20226;-71
2022/06/24 08:11:23;;;;;;;0.00;0.00;;;22.30;99.80;;;;;;4937070;29;20265;-73
2022/06/24 08:13:51;;;;;;;0.00;0.00;;;22.00;99.90;;;;;;4937108;29;20222;-73
2022/06/24 08:16:19;;;;;;;0.00;0.00;;;21.80;99.90;;;;;;4936578;29;20265;-73
2022/06/24 08:18:47;;;;;;;0.00;0.00;;;21.40;99.90;;;;;;4937317;29;20351;-73
2022/06/24 08:21:15;;;;;;;0.00;0.00;;;21.20;99.90;;;;;;4936436;29;20648;-73
2022/06/24 08:23:44;;;;;;;0.00;0.00;;;21.20;99.90;;;;;;4936293;29;20209;-73
2022/06/24 08:26:12;;;;;;;0.00;0.00;;;21.30;99.90;;;;;;4936288;29;20198;-73
2022/06/24 08:28:39;;;;;;;0.00;0.00;;;21.40;99.90;;;;;;4936376;29;20218;-73
2022/06/24 08:31:07;;;;;;;0.00;0.00;;;21.50;99.90;;;;;;4937111;29;20212;-72
2022/06/24 08:33:35;;;;;;;0.00;0.00;;;21.60;99.90;;;;;;4937191;29;20206;-74
2022/06/24 08:36:03;;;;;;;0.00;0.00;;;21.70;99.90;;;;;;4934723;29;20674;-74
2022/06/24 08:38:31;;;;;;;0.00;0.00;;;21.70;99.90;;;;;;4927842;29;20261;-74
2022/06/24 08:41:02;;;;;;;0.00;0.00;;;21.70;99.90;;;;;;4932367;29;20202;-74
2022/06/24 08:43:32;;;;;;;0.00;0.00;;;21.60;99.90;;;;;;4916404;29;20203;-74
2022/06/24 08:46:00;;;;;;;0.00;0.00;;;21.50;99.90;;;;;;4920394;29;20214;-75
2022/06/24 08:48:33;;;;;;;0.00;0.00;;;21.60;99.90;;;;;;4915621;29;20219;-75
2022/06/24 08:51:01;;;;;;;0.00;0.00;;;21.50;99.90;;;;;;4915507;29;20258;-74
2022/06/24 08:53:30;;;;;;;0.00;0.00;;;21.60;99.90;;;;;;4915808;29;20742;-74
2022/06/24 08:55:58;;;;;;;0.00;0.00;;;21.50;99.90;;;;;;4915102;29;20198;-74
2022/06/24 08:58:27;;;;;;;0.00;0.00;;;21.40;99.90;;;;;;4915328;29;20236;-74
2022/06/24 09:00:55;;;;;;;0.00;0.00;;;21.40;99.90;;;;;;4915896;29;20191;-74
2022/06/24 09:03:23;;;;;;;0.00;0.00;;;21.60;99.90;;;;;;4916724;29;20205;-74
2022/06/24 09:05:50;;;;;;;0.00;0.00;;;21.50;99.90;;;;;;4917112;29;20202;-74
2022/06/24 09:08:18;;;;;;;0.00;0.00;;;21.70;99.90;;;;;;4920954;29;20572;-74
2022/06/24 09:11:06;;;;;;;0.00;0.00;;;21.70;99.90;;;;;;4916956;29;20282;-74
2022/06/24 09:13:44;;;;;;;0.00;0.00;;;21.70;99.90;;;;;;4915698;29;20246;-73
2022/06/24 09:16:13;;;;;;;0.00;0.00;;;21.80;99.90;;;;;;4915264;29;20195;-73
2022/06/24 09:18:41;;;;;;;0.00;0.00;;;21.70;99.90;;;;;;4918828;29;20227;-74
2022/06/24 09:21:20;;;;;;;0.00;0.00;;;21.70;99.90;;;;;;4919801;29;20191;-74
2022/06/24 09:23:53;;;;;;;0.00;0.00;;;21.70;99.90;;;;;;4930870;29;20214;-74
2022/06/24 09:26:32;;;;;;;0.00;0.00;;;21.80;99.90;;;;;;4919679;29;20274;-74
2022/06/24 09:29:03;;;;;;;0.00;0.00;;;21.80;99.90;;;;;;4918996;29;20222;-74
2022/06/24 09:31:31;;;;;;;0.00;0.00;;;21.90;99.90;;;;;;4931048;29;20206;-74
2022/06/24 09:34:11;;;;;;;0.00;0.00;;;22.00;99.90;;;;;;4938192;29;20208;-74
2022/06/24 09:36:40;;;;;;;0.00;0.00;;;22.00;99.90;;;;;;4920956;29;20351;-74
2022/06/24 09:39:11;;;;;;;0.00;0.00;;;22.10;99.90;;;;;;4938269;29;20225;-75
2022/06/24 09:41:50;;;;;;;0.00;0.00;;;22.10;99.90;;;;;;4938304;29;20670;-71
2022/06/24 09:44:19;;;;;;;0.00;0.00;;;22.30;99.90;;;;;;4940222;29;20202;-73
2022/06/24 09:46:48;;;;;;;0.00;0.00;;;22.30;99.90;;;;;;4937834;29;20203;-72
2022/06/24 09:49:18;;;;;;;0.00;0.00;;;22.50;99.90;;;;;;4929141;29;20242;-73
2022/06/24 09:51:46;;;;;;;0.00;0.00;;;22.50;99.90;;;;;;4921463;29;20223;-75
2022/06/24 09:54:15;;;;;;;0.00;0.00;;;22.60;99.90;;;;;;4921458;29;20198;-73
2022/06/24 09:56:45;;;;;;;0.00;0.00;;;22.60;99.90;;;;;;4937284;29;20210;-73
2022/06/24 10:02:03;;;;;;;0.00;0.00;;;22.60;99.90;;;;;;4940828;29;20689;-74
2022/06/24 10:04:32;;;;;;;0.00;0.00;;;22.60;99.90;;;;;;4933261;29;20199;-73
2022/06/24 10:07:03;;;;;;;0.00;0.00;;;22.60;99.90;;;;;;4939865;29;20584;-72
2022/06/24 10:09:35;;;;;;;0.00;0.00;;;22.60;99.90;;;;;;4920177;29;20218;-73
2022/06/24 10:12:04;;;;;;;0.00;0.00;;;22.50;99.90;;;;;;4918691;29;20234;-73
2022/06/24 10:14:31;;;;;;;0.00;0.00;;;22.40;99.90;;;;;;4918562;29;20239;-73
2022/06/24 10:17:01;;;;;;;0.00;0.00;;;22.30;99.90;;;;;;4918440;29;20203;-73
2022/06/24 10:19:31;;;;;;;0.00;0.00;;;22.20;99.90;;;;;;4917966;29;20222;-72
2022/06/24 10:21:59;;;;;;;0.00;0.00;;;22.20;99.90;;;;;;4922307;29;20742;-73
2022/06/24 10:24:39;;;;;;;0.00;0.00;;;22.10;99.90;;;;;;4917368;29;20305;-73
2022/06/24 10:27:07;;;;;;;0.00;0.00;;;22.00;99.90;;;;;;4935509;29;20210;-73
2022/06/24 10:29:36;;;;;;;0.00;0.00;;;21.80;99.90;;;;;;4932893;29;20270;-73
2022/06/24 10:32:11;;;;;;;0.00;0.00;;;21.70;99.90;;;;;;4918324;29;20203;-73
2022/06/24 10:34:45;;;;;;;0.00;0.00;;;21.50;99.90;;;;;;4903239;29;20214;-75
2022/06/24 10:37:27;;;;;;;0.00;0.00;;;21.40;99.90;;;;;;4925862;29;20210;-73
2022/06/24 10:39:58;;;;;;;0.00;0.00;;;21.50;99.90;;;;;;4918066;29;20286;-73
2022/06/24 10:42:26;;;;;;;0.00;0.00;;;21.70;99.90;;;;;;4917610;29;20277;-73
2022/06/24 10:45:00;;;;;;;0.00;0.00;;;21.70;99.90;;;;;;4936452;29;20215;-74
2022/06/24 10:47:39;;;;;;;0.00;0.00;;;21.50;99.90;;;;;;4936866;29;20206;-74
2022/06/24 10:50:20;;;;;;;0.00;0.00;;;21.50;99.90;;;;;;4936376;29;20214;-71
2022/06/24 10:53:03;;;;;;;0.00;0.00;;;21.40;99.90;;;;;;4931904;29;20636;-73
2022/06/24 10:55:38;;;;;;;0.00;0.00;;;21.30;99.90;;;;;;4929200;29;20716;-73
2022/06/24 10:58:09;;;;;;;0.00;0.00;;;21.30;99.90;;;;;;4921557;29;20226;-73
2022/06/24 11:00:53;;;;;;;0.00;0.00;;;21.30;99.90;;;;;;4918485;29;20211;-72
2022/06/24 11:03:29;;;;;;;0.00;0.00;;;21.40;99.90;;;;;;4936593;29;20747;-73
2022/06/24 11:05:57;;;;;;;0.00;0.00;;;21.30;99.90;;;;;;4919640;29;20217;-73
2022/06/24 11:08:26;;;;;;;0.00;0.00;;;21.30;99.90;;;;;;4935985;29;20206;-72
2022/06/24 11:10:55;;;;;;;0.00;0.00;;;21.30;99.90;;;;;;4936569;29;20202;-73
2022/06/24 11:13:24;;;;;;;0.00;0.00;;;21.30;99.90;;;;;;4936108;29;20206;-73
2022/06/24 11:15:55;;;;;;;0.00;0.00;;;21.20;99.90;;;;;;4936555;29;20281;-73
2022/06/24 11:18:25;;;;;;;0.00;0.00;;;21.20;99.90;;;;;;4936046;29;20222;-74
2022/06/24 11:20:56;;;;;;;0.00;0.00;;;21.30;99.90;;;;;;4937108;29;20603;-74
2022/06/24 11:23:26;;;;;;;0.00;0.00;;;21.20;99.90;;;;;;4929137;29;20226;-72
2022/06/24 11:25:57;;;;;;;0.00;0.00;;;21.00;99.90;;;;;;4919062;29;20214;-74
2022/06/24 11:28:28;;;;;;;0.00;0.00;;;21.00;99.90;;;;;;4936118;29;20222;-74
2022/06/24 11:30:57;;;;;;;0.00;0.00;;;21.20;99.90;;;;;;4926720;29;20211;-74
2022/06/24 11:33:25;;;;;;;0.00;0.00;;;21.30;99.90;;;;;;4915801;29;20211;-72
2022/06/24 11:35:54;;;;;;;0.00;0.00;;;21.40;99.90;;;;;;4916834;29;20675;-70
2022/06/24 11:38:22;;;;;;;0.00;0.00;;;21.70;99.90;;;;;;4916509;29;20230;-72
2022/06/24 11:40:51;;;;;;;0.00;0.00;;;21.90;99.90;;;;;;4916612;29;20195;-72
2022/06/24 11:43:19;;;;;;;0.00;0.00;;;22.10;99.90;;;;;;4916071;29;20202;-75
2022/06/24 11:45:49;;;;;;;0.00;0.00;;;22.30;99.90;;;;;;4916970;29;20659;-73
2022/06/24 11:48:21;;;;;;;0.00;0.00;;;22.40;99.90;;;;;;4916334;29;20256;-72
2022/06/24 11:50:51;;;;;;;0.00;0.00;;;22.50;99.90;;;;;;4919056;29;20195;-73
2022/06/24 11:53:25;;;;;;;0.00;0.00;;;22.70;99.90;;;;;;4916731;29;20289;-73
2022/06/24 11:55:55;;;;;;;0.00;0.00;;;22.70;99.90;;;;;;4917189;29;20289;-73
2022/06/24 11:58:23;;;;;;;0.00;0.00;;;22.90;99.90;;;;;;4917250;29;20223;-72
2022/06/24 12:00:53;;;;;;;0.00;0.00;;;22.90;99.90;;;;;;4922897;29;20212;-72
2022/06/24 12:03:24;;;;;;;0.00;0.00;;;23.10;99.90;;;;;;4923131;29;20199;-71
2022/06/24 12:05:52;;;;;;;0.00;0.00;;;22.90;99.90;;;;;;4921297;29;20195;-74
2022/06/24 12:08:21;;;;;;;0.00;0.00;;;23.00;99.90;;;;;;4923191;29;20191;-72
2022/06/24 12:10:51;;;;;;;0.00;0.00;;;23.10;99.90;;;;;;4923498;29;20207;-72
2022/06/24 12:13:32;;;;;;;0.00;0.00;;;23.20;99.90;;;;;;4921703;29;20199;-71
2022/06/24 12:16:00;;;;;;;0.00;0.00;;;22.70;99.90;;;;;;4921907;29;20686;-72
2022/06/24 12:18:29;;;;;;;0.00;0.00;;;22.60;99.90;;;;;;4916413;29;20219;-72
2022/06/24 12:21:00;;;;;;;0.00;0.00;;;22.60;99.90;;;;;;4916566;29;20714;-75
2022/06/24 12:23:33;;;;;;;0.00;0.00;;;22.70;99.90;;;;;;4916801;29;20202;-73
2022/06/24 12:26:13;;;;;;;0.00;0.00;;;22.50;99.90;;;;;;4916160;29;20210;-73
2022/06/24 12:28:41;;;;;;;0.00;0.00;;;22.70;99.90;;;;;;4916340;29;20694;-72
2022/06/24 12:31:11;;;;;;;0.00;0.00;;;22.80;99.90;;;;;;4916023;29;20682;-73
2022/06/24 12:33:50;;;;;;;0.00;0.00;;;22.70;99.90;;;;;;4916000;29;20203;-73
2022/06/24 12:36:20;;;;;;;0.00;0.00;;;22.60;99.90;;;;;;4914494;29;20675;-73
2022/06/24 12:39:04;;;;;;;0.00;0.00;;;22.70;99.90;;;;;;4915572;29;20219;-72
2022/06/24 12:41:44;;;;;;;0.00;0.00;;;22.80;99.90;;;;;;4916485;29;20213;-72
2022/06/24 12:44:12;;;;;;;0.00;0.00;;;23.00;99.90;;;;;;4918094;29;20195;-72
2022/06/24 12:52:30;;;;;;;0.00;0.00;;;23.20;99.90;;;;;;4916279;29;20786;-75
2022/06/24 12:54:57;;;;;;;0.00;0.00;;;23.40;99.90;;;;;;4917135;29;20246;-71
2022/06/24 12:57:27;;;;;;;0.00;0.00;;;23.30;99.90;;;;;;4919329;29;20211;-72
2022/06/24 12:59:55;;;;;;;0.00;0.00;;;23.40;99.90;;;;;;4920552;29;20226;-73
2022/06/24 13:02:23;;;;;;;0.00;0.00;;;23.30;99.90;;;;;;4918859;29;20217;-73
2022/06/24 13:04:50;;;;;;;0.00;0.00;;;23.20;99.90;;;;;;4921301;29;20214;-72
2022/06/24 13:07:26;;;;;;;0.00;0.00;;;23.30;99.90;;;;;;4915743;29;20277;-73
2022/06/24 13:09:54;;;;;;;0.00;0.00;;;23.50;99.90;;;;;;4916161;29;20698;-73
2022/06/24 13:12:21;;;;;;;0.00;0.00;;;23.80;99.90;;;;;;4915017;29;20203;-73
2022/06/24 13:14:50;;;;;;;0.00;0.00;;;23.90;99.90;;;;;;4915575;29;20194;-73
2022/06/24 13:17:18;;;;;;;0.00;0.00;;;24.10;99.90;;;;;;4915463;29;20203;-72